KVBG/VBG METAR and TAF weather

Enter ICAO airport designator
Station Type Date Time Source
KVBG METAR 2022/01/29 00:58 UTC NOAA

KVBG 290058Z 00000KT 10SM FEW160 FEW250 SCT300 16/03 A3019 RMK AO2A SLP227 T01580033 $


Station Type Date Time Source
KVBG Decoded METAR 2022/01/29 00:58 UTC NOAA

Lompoc, Vandenberg Air Force Base, CA, United States (KVBG) 34-43-46N 120-34-36W 121M
Jan 28, 2022 - 07:58 PM EST / 2022.01.29 0058 UTC
Wind: Calm:0
Visibility: 10 mile(s):0
Sky conditions: partly cloudy
Temperature: 60.4 F (15.8 C)
Dew Point: 37.9 F (3.3 C)
Relative Humidity: 43%
Pressure (altimeter): 30.19 in. Hg (1022 hPa)
ob: KVBG 290058Z 00000KT 10SM FEW160 FEW250 SCT300 16/03 A3019 RMK AO2A SLP227 T01580033
cycle: 1

Station Type Date Time Source
KVBG TAF 2022/01/28 23:03 UTC NOAA

TAF KVBG 282300Z 2823/3005 31009KT 9999 SCT250 QNH3017INS
BECMG 2901/2902 VRB06KT 9999 SCT250 QNH3021INS
BECMG 2918/2919 33012KT 9999 SCT100 BKN200 QNH3026INS
BECMG 3001/3002 35009KT 9999 SCT100 BKN200 QNH3019INS TX21/2921Z TN04/2915Z LAST NO
AMDS AFT 2901 NEXT 2907

Example: see airport list